Kezdőlap
METAR-TAF:

METAR-TAF

Repülőterek :

Yap, Mikronézia

földrajzi szélesség: 09-29N, földrajzi hosszúság: 138-05E, magasság: 28 m

Jelenlegi meteorológiai megfigyelések

A jelentés 1 órával és 3 perccel ezelõtt készült, 01:50 UTC
Különbözõ irányokból fújó szél 6 kt
Hőmérséklet 30°C
Páratartalom 75%
Légköri nyomás 1010 hPa
Látótávolság: 19.3 km
Kevés felhő 1700 lábon
Szakadozott felhőzet 30000 lábon

METAR: PTYA 230150Z VRB06KT 12SM FEW017 BKN300 30/25 A2982 RMK SLP100 T02960251

Idő: 12:53 (02:53 UTC)

Előrejelzés

A jelentés 3 órával és 32 perccel ezelõtt készült, 23:21 UTC
Az előrejelzés 23-én 00 óra UTC és 23-én 24 óra UTC között érvényes
Keleti szél 5 kt
Látótávolság: 10 km
Kevés felhő 1700 lábon
Szórványos felhőzet 13000 lábon

TAF: PTYA 222321Z 2300/2324 09005KT P6SM FEW017 SCT130

Meteorológiai megfigyelések és előrejelzések több, mint 4000 repülőtéren (METAR és TAF jelentéseket).

A térképen piros és sárga pontok jelzik az elérhető meteorológiai állomásokat.

Mozgassa az egeret a pont fölött, hogy megjelenjen az állomás neve.

Azután kattintson az időjárási megfigyelések és előrejelzések megtekintéséhez.

A térkép megváltoztatása: kattintson a fekete keresztel jelölt zöld gombra ráközelítéshez, a vonallal jelölt zöld gombra távolításhoz, vagy a zöld nyilakra a szomszédos térképek eléréséhez.


METAR-TAF: